createdAt,value
2023-01-21T00:00:29.923Z,11.90
2023-01-21T00:01:33.008Z,11.93
2023-01-21T00:02:36.078Z,8.52
2023-01-21T00:03:39.687Z,13.70
2023-01-21T00:04:42.956Z,12.00
2023-01-21T00:05:46.111Z,11.77
2023-01-21T00:06:49.456Z,8.98
2023-01-21T00:07:52.645Z,9.43
2023-01-21T00:08:59.583Z,16.23
2023-01-21T00:10:02.792Z,12.35
2023-01-21T00:11:13.839Z,15.27
2023-01-21T00:12:17.155Z,9.88
2023-01-21T00:13:20.320Z,11.82
2023-01-21T00:14:23.426Z,12.75
2023-01-21T00:15:26.553Z,10.77
2023-01-21T00:16:29.733Z,12.38
2023-01-21T00:17:35.897Z,13.65
2023-01-21T00:18:39.085Z,11.63
2023-01-21T00:19:42.418Z,11.15
2023-01-21T00:20:46.413Z,16.10
2023-01-21T00:21:49.532Z,14.23
2023-01-21T00:22:56.016Z,10.63
2023-01-21T00:23:59.072Z,10.43
2023-01-21T00:25:02.766Z,12.27
2023-01-21T00:26:08.277Z,9.95
2023-01-21T00:27:11.414Z,9.98
2023-01-21T00:28:14.701Z,11.55
2023-01-21T00:29:18.252Z,12.23
2023-01-21T00:30:21.366Z,10.40
2023-01-21T00:31:24.694Z,10.90
2023-01-21T00:32:28.626Z,9.55
2023-01-21T00:33:33.495Z,10.25
2023-01-21T00:34:36.664Z,13.82
2023-01-21T00:35:42.189Z,11.50
2023-01-21T00:36:45.437Z,10.48
2023-01-21T00:37:51.051Z,11.18
2023-01-21T00:38:54.181Z,11.88
2023-01-21T00:39:57.253Z,9.82
2023-01-21T00:41:13.481Z,12.80
2023-01-21T00:42:16.674Z,8.65
2023-01-21T00:43:19.819Z,12.95
2023-01-21T00:44:22.908Z,8.32
2023-01-21T00:45:26.028Z,9.93
2023-01-21T00:46:29.163Z,8.07
2023-01-21T00:47:32.409Z,9.23
2023-01-21T00:48:35.966Z,12.05
2023-01-21T00:49:39.154Z,8.43
2023-01-21T00:50:42.608Z,7.75
2023-01-21T00:51:45.789Z,8.60
2023-01-21T00:52:48.845Z,8.70
2023-01-21T00:53:51.872Z,8.80
2023-01-21T00:54:55.039Z,10.65
2023-01-21T00:56:07.347Z,12.30
2023-01-21T00:57:10.618Z,8.63
2023-01-21T00:58:14.230Z,10.63
2023-01-21T00:59:17.766Z,8.48
2023-01-21T01:00:21.137Z,10.25
2023-01-21T01:01:26.979Z,10.73
2023-01-21T01:02:30.215Z,9.93
2023-01-21T01:03:34.657Z,8.52
2023-01-21T01:04:37.873Z,9.07
2023-01-21T01:05:41.014Z,7.53
2023-01-21T01:06:44.112Z,9.63
2023-01-21T01:07:47.700Z,10.73
2023-01-21T01:08:51.722Z,7.25
2023-01-21T01:09:54.851Z,8.35
2023-01-21T01:10:58.433Z,8.80
2023-01-21T01:12:01.609Z,7.25
2023-01-21T01:13:04.811Z,8.57
2023-01-21T01:14:08.017Z,7.80
2023-01-21T01:15:24.057Z,7.05
2023-01-21T01:16:27.355Z,7.32
2023-01-21T01:17:30.527Z,7.63
2023-01-21T01:18:36.934Z,9.50
2023-01-21T01:19:40.105Z,7.03
2023-01-21T01:20:44.229Z,9.63
2023-01-21T01:21:47.482Z,7.20
2023-01-21T01:22:50.666Z,9.40
2023-01-21T01:23:54.897Z,7.60
2023-01-21T01:24:58.039Z,9.77
2023-01-21T01:26:07.241Z,8.98
2023-01-21T01:27:10.322Z,5.70
2023-01-21T01:28:13.557Z,8.90
2023-01-21T01:29:16.864Z,7.78
2023-01-21T01:30:20.142Z,9.30
2023-01-21T01:31:23.358Z,7.32
2023-01-21T01:32:26.609Z,9.35
2023-01-21T01:33:30.435Z,7.47
2023-01-21T01:34:33.506Z,8.18
2023-01-21T01:35:36.723Z,8.15
2023-01-21T01:36:39.817Z,10.98
2023-01-21T01:37:42.926Z,9.68
2023-01-21T01:38:46.390Z,10.10
2023-01-21T01:39:49.553Z,7.50
2023-01-21T01:40:53.756Z,6.70
2023-01-21T01:41:57.027Z,10.73
2023-01-21T01:43:00.448Z,8.88
2023-01-21T01:44:45.624Z,9.82
2023-01-21T01:45:49.607Z,7.75
2023-01-21T01:46:57.264Z,7.00
2023-01-21T01:48:06.347Z,11.25
2023-01-21T01:49:17.078Z,10.35
2023-01-21T01:50:21.284Z,7.95
2023-01-21T01:51:45.485Z,8.45
2023-01-21T01:52:48.799Z,8.50
2023-01-21T01:53:52.884Z,9.27
2023-01-21T01:55:01.244Z,7.78
2023-01-21T01:56:07.746Z,10.48
2023-01-21T01:57:15.200Z,9.27
2023-01-21T01:58:21.253Z,8.43
2023-01-21T01:59:24.900Z,7.18
2023-01-21T02:00:28.608Z,7.55
2023-01-21T02:01:31.969Z,8.48
2023-01-21T02:02:36.105Z,8.38
2023-01-21T02:03:44.869Z,9.02
2023-01-21T02:04:54.277Z,8.85
2023-01-21T02:05:57.586Z,8.30
2023-01-21T02:07:01.178Z,9.25
2023-01-21T02:08:05.270Z,13.27
2023-01-21T02:09:08.686Z,6.82
2023-01-21T02:10:19.648Z,7.65
2023-01-21T02:11:23.051Z,12.00
2023-01-21T02:12:26.254Z,12.93
2023-01-21T02:13:31.733Z,7.07
2023-01-21T02:14:42.854Z,9.23
2023-01-21T02:16:46.287Z,7.68
2023-01-21T02:18:37.681Z,10.38
2023-01-21T02:21:11.163Z,7.25
2023-01-21T02:22:55.268Z,7.35
2023-01-21T02:24:10.055Z,7.32
2023-01-21T02:25:45.593Z,6.60
2023-01-21T02:27:30.724Z,7.82
2023-01-21T02:28:57.579Z,5.80
2023-01-21T02:30:37.935Z,6.70
2023-01-21T02:32:03.265Z,7.55
2023-01-21T02:33:43.627Z,6.85
2023-01-21T02:35:01.565Z,8.77
2023-01-21T02:36:26.163Z,10.15
2023-01-21T02:37:39.864Z,5.95
2023-01-21T02:38:43.064Z,6.07
2023-01-21T02:40:13.610Z,6.32
2023-01-21T02:41:58.150Z,5.13
2023-01-21T02:43:19.754Z,6.97
2023-01-21T02:44:36.312Z,4.90
2023-01-21T02:45:53.432Z,5.80
2023-01-21T02:47:16.165Z,6.20
2023-01-21T02:48:32.815Z,6.47
2023-01-21T02:49:45.521Z,5.10
2023-01-21T02:50:52.505Z,9.68
2023-01-21T02:51:55.850Z,6.28
2023-01-21T02:53:02.269Z,6.97
2023-01-21T02:54:38.866Z,7.18
2023-01-21T02:55:43.512Z,8.50
2023-01-21T02:56:46.727Z,8.68
2023-01-21T02:57:55.824Z,6.03
2023-01-21T02:59:04.789Z,5.95
2023-01-21T03:00:20.534Z,4.35
2023-01-21T03:02:24.196Z,7.93
2023-01-21T03:04:07.871Z,9.15
2023-01-21T03:05:25.521Z,7.85
2023-01-21T03:07:11.513Z,6.50
2023-01-21T03:08:32.923Z,6.40
2023-01-21T03:09:37.241Z,5.40
2023-01-21T03:10:56.058Z,6.55
2023-01-21T03:12:23.253Z,7.95
2023-01-21T03:14:00.934Z,6.28
2023-01-21T03:15:51.289Z,10.27
2023-01-21T03:17:06.384Z,6.90
2023-01-21T03:18:39.037Z,5.28
2023-01-21T03:20:08.242Z,6.75
2023-01-21T03:21:21.272Z,7.82
2023-01-21T03:22:32.572Z,6.55
2023-01-21T03:23:41.309Z,7.97
2023-01-21T03:24:48.982Z,8.23
2023-01-21T03:25:52.316Z,8.95
2023-01-21T03:26:59.065Z,6.35
2023-01-21T03:28:07.898Z,5.53
2023-01-21T03:29:19.619Z,5.03
2023-01-21T03:30:25.851Z,6.85
2023-01-21T03:31:33.620Z,5.90
2023-01-21T03:32:38.766Z,8.90
2023-01-21T03:33:46.790Z,6.32
2023-01-21T03:34:54.834Z,9.32
2023-01-21T03:36:01.622Z,7.95
2023-01-21T03:37:14.901Z,5.72
2023-01-21T03:38:36.958Z,6.40
2023-01-21T03:40:20.120Z,7.40
2023-01-21T03:41:32.173Z,7.55
2023-01-21T03:42:35.641Z,7.25
2023-01-21T03:43:39.579Z,4.45
2023-01-21T03:44:43.184Z,5.90
2023-01-21T03:46:22.689Z,6.60
2023-01-21T03:47:37.960Z,7.18
2023-01-21T03:49:04.558Z,5.32
2023-01-21T03:50:25.614Z,5.88
2023-01-21T03:52:43.125Z,4.82
2023-01-21T03:53:51.361Z,5.63
2023-01-21T03:54:54.836Z,6.63
2023-01-21T03:56:00.005Z,6.22
2023-01-21T03:57:03.173Z,6.88
2023-01-21T03:58:06.500Z,6.78
2023-01-21T03:59:09.677Z,5.82
2023-01-21T04:00:13.499Z,7.88
2023-01-21T04:01:16.742Z,7.00
2023-01-21T04:02:21.109Z,6.50
2023-01-21T04:03:24.317Z,4.97
2023-01-21T04:04:27.474Z,7.47
2023-01-21T04:05:30.659Z,5.55
2023-01-21T04:06:33.966Z,7.30
2023-01-21T04:07:37.090Z,5.65
2023-01-21T04:08:40.353Z,3.90
2023-01-21T04:09:43.806Z,4.72
2023-01-21T04:10:46.925Z,6.47
2023-01-21T04:11:50.106Z,5.28
2023-01-21T04:12:53.398Z,4.07
2023-01-21T04:13:56.655Z,5.38
2023-01-21T04:14:59.781Z,4.57
2023-01-21T04:16:03.174Z,6.03
2023-01-21T04:17:06.475Z,5.90
2023-01-21T04:18:09.690Z,6.25
2023-01-21T04:19:12.821Z,5.28
2023-01-21T04:20:16.389Z,5.75
2023-01-21T04:21:19.664Z,4.57
2023-01-21T04:22:22.782Z,4.72
2023-01-21T04:23:25.921Z,4.45
2023-01-21T04:24:29.081Z,4.20
2023-01-21T04:25:32.204Z,3.13
2023-01-21T04:26:35.398Z,4.35
2023-01-21T04:27:38.554Z,4.60
2023-01-21T04:28:42.207Z,4.47
2023-01-21T04:29:45.350Z,4.90
2023-01-21T04:30:48.632Z,3.72
2023-01-21T04:31:51.954Z,3.50
2023-01-21T04:32:55.055Z,4.80
2023-01-21T04:33:58.145Z,7.57
2023-01-21T04:35:01.301Z,4.78
2023-01-21T04:36:04.740Z,4.85
2023-01-21T04:37:07.912Z,6.00
2023-01-21T04:38:11.632Z,4.05
2023-01-21T04:39:14.850Z,5.60
2023-01-21T04:40:18.510Z,3.88
2023-01-21T04:41:23.866Z,5.18
2023-01-21T04:42:28.307Z,4.80
2023-01-21T04:43:31.439Z,4.57
2023-01-21T04:44:34.617Z,6.32
2023-01-21T04:45:37.759Z,5.07
2023-01-21T04:46:41.030Z,5.25
2023-01-21T04:47:45.274Z,5.90
2023-01-21T04:48:48.628Z,5.20
2023-01-21T04:49:52.885Z,4.63
2023-01-21T04:50:56.174Z,6.63
2023-01-21T04:51:59.461Z,4.30
2023-01-21T04:53:02.665Z,6.40
2023-01-21T04:54:05.837Z,4.25
2023-01-21T04:55:10.160Z,5.00
2023-01-21T04:56:13.281Z,6.60
2023-01-21T04:57:16.471Z,3.60
2023-01-21T04:58:20.978Z,4.18
2023-01-21T04:59:24.064Z,5.50
2023-01-21T05:00:27.260Z,3.35
2023-01-21T05:01:30.548Z,4.47
2023-01-21T05:02:34.682Z,3.28
2023-01-21T05:03:37.860Z,3.67
2023-01-21T05:04:41.076Z,4.75
2023-01-21T05:05:44.130Z,3.30
2023-01-21T05:06:47.393Z,4.63
2023-01-21T05:07:54.027Z,4.22
2023-01-21T05:08:57.242Z,4.07
2023-01-21T05:10:00.304Z,5.15
2023-01-21T05:11:03.410Z,5.60
2023-01-21T05:12:06.896Z,4.68
2023-01-21T05:13:09.968Z,4.07
2023-01-21T05:14:13.148Z,4.47
2023-01-21T05:15:16.512Z,3.55
2023-01-21T05:16:19.793Z,4.65
2023-01-21T05:17:23.072Z,3.72
2023-01-21T05:18:26.214Z,3.10
2023-01-21T05:19:29.306Z,4.25
2023-01-21T05:20:32.597Z,3.58
2023-01-21T05:21:35.826Z,4.40
2023-01-21T05:22:39.416Z,3.63
2023-01-21T05:23:42.508Z,2.90
2023-01-21T05:24:45.644Z,2.85
2023-01-21T05:25:49.719Z,2.80
2023-01-21T05:26:52.975Z,3.33
2023-01-21T05:27:56.458Z,2.95
2023-01-21T05:28:59.607Z,4.25
2023-01-21T05:30:03.179Z,4.68
2023-01-21T05:31:06.375Z,2.83
2023-01-21T05:32:10.541Z,3.63
2023-01-21T05:33:13.759Z,3.40
2023-01-21T05:34:16.860Z,4.38
2023-01-21T05:35:22.146Z,3.00
2023-01-21T05:36:25.509Z,3.03
2023-01-21T05:37:28.615Z,3.05
2023-01-21T05:38:31.864Z,2.22
2023-01-21T05:39:35.061Z,4.07
2023-01-21T05:40:38.278Z,2.70
2023-01-21T05:41:41.382Z,2.58
2023-01-21T05:42:45.921Z,4.47
2023-01-21T05:43:51.701Z,2.95
2023-01-21T05:44:54.989Z,1.90
2023-01-21T05:45:58.278Z,2.50
2023-01-21T05:47:01.539Z,3.03
2023-01-21T05:48:05.240Z,2.60
2023-01-21T05:49:08.311Z,2.63
2023-01-21T05:50:12.595Z,2.28
2023-01-21T05:51:16.042Z,2.10
2023-01-21T05:52:19.204Z,2.63
2023-01-21T05:53:22.374Z,2.20
2023-01-21T05:54:25.535Z,1.63
2023-01-21T05:55:28.780Z,1.30
2023-01-21T05:56:31.944Z,1.88
2023-01-21T05:57:36.586Z,5.38
2023-01-21T05:58:39.661Z,1.92
2023-01-21T05:59:42.752Z,1.52
2023-01-21T06:00:47.641Z,1.42
2023-01-21T06:01:50.864Z,2.08
2023-01-21T06:02:54.016Z,1.88
2023-01-21T06:03:57.287Z,1.70
2023-01-21T06:05:00.422Z,2.05
2023-01-21T06:06:03.995Z,2.10
2023-01-21T06:07:07.119Z,3.00
2023-01-21T06:08:11.676Z,1.55
2023-01-21T06:09:14.761Z,1.52
2023-01-21T06:10:18.322Z,1.48
2023-01-21T06:11:21.656Z,0.93
2023-01-21T06:12:25.038Z,1.90
2023-01-21T06:13:28.338Z,0.95
2023-01-21T06:14:31.551Z,1.17
2023-01-21T06:15:34.890Z,1.65
2023-01-21T06:16:38.032Z,1.00
2023-01-21T06:17:41.323Z,1.10
2023-01-21T06:18:44.535Z,0.80
2023-01-21T06:19:47.661Z,1.30
2023-01-21T06:20:51.028Z,1.00
2023-01-21T06:21:54.170Z,1.23
2023-01-21T06:22:58.458Z,2.72
2023-01-21T06:24:02.584Z,0.63
2023-01-21T06:25:06.286Z,1.05
2023-01-21T06:26:09.445Z,1.17
2023-01-21T06:27:13.104Z,2.70
2023-01-21T06:28:16.189Z,0.75
2023-01-21T06:29:19.344Z,0.77
2023-01-21T06:30:23.700Z,1.52
2023-01-21T06:31:27.103Z,1.00
2023-01-21T06:32:30.161Z,0.88
2023-01-21T06:33:33.365Z,0.90
2023-01-21T06:34:36.487Z,1.52
2023-01-21T06:35:39.685Z,3.67
2023-01-21T06:36:42.954Z,1.05
2023-01-21T06:37:46.840Z,2.08
2023-01-21T06:38:49.952Z,0.80
2023-01-21T06:39:53.815Z,0.73
2023-01-21T06:40:56.931Z,1.10
2023-01-21T06:42:00.134Z,0.82
2023-01-21T06:43:03.179Z,1.10
2023-01-21T06:44:06.991Z,1.13
2023-01-21T06:45:10.845Z,1.02
2023-01-21T06:46:14.067Z,0.93
2023-01-21T06:47:17.299Z,1.35
2023-01-21T06:48:20.844Z,1.00
2023-01-21T06:49:23.984Z,1.27
2023-01-21T06:50:27.130Z,1.15
2023-01-21T06:51:30.247Z,1.13
2023-01-21T06:52:33.422Z,1.75
2023-01-21T06:53:36.701Z,6.05
2023-01-21T06:54:39.865Z,1.30
2023-01-21T06:55:43.141Z,1.20
2023-01-21T06:56:46.265Z,0.75
2023-01-21T06:57:49.383Z,1.55
2023-01-21T06:58:52.552Z,2.42
2023-01-21T06:59:55.595Z,1.15
2023-01-21T07:00:58.865Z,0.93
2023-01-21T07:02:02.423Z,0.90
2023-01-21T07:03:05.602Z,1.27
2023-01-21T07:04:08.838Z,1.35
2023-01-21T07:05:12.272Z,0.93
2023-01-21T07:06:15.506Z,1.20
2023-01-21T07:07:18.999Z,0.88
2023-01-21T07:08:22.228Z,1.13
2023-01-21T07:09:25.600Z,0.80
2023-01-21T07:10:28.744Z,1.17
2023-01-21T07:11:32.316Z,0.98
2023-01-21T07:12:35.534Z,1.45
2023-01-21T07:13:38.705Z,2.33
2023-01-21T07:14:42.192Z,1.15
2023-01-21T07:15:45.307Z,1.00
2023-01-21T07:16:48.508Z,1.33
2023-01-21T07:17:53.099Z,1.50
2023-01-21T07:18:56.202Z,1.80
2023-01-21T07:19:59.359Z,2.50
2023-01-21T07:21:02.695Z,1.35
2023-01-21T07:22:05.826Z,1.00
2023-01-21T07:23:09.188Z,1.35
2023-01-21T07:24:12.298Z,0.93
2023-01-21T07:25:15.892Z,1.33
2023-01-21T07:26:19.292Z,0.98
2023-01-21T07:27:22.537Z,2.50
2023-01-21T07:28:25.612Z,1.70
2023-01-21T07:29:29.510Z,1.10
2023-01-21T07:30:32.723Z,1.20
2023-01-21T07:31:36.111Z,1.40
2023-01-21T07:32:39.235Z,1.00
2023-01-21T07:33:42.304Z,1.38
2023-01-21T07:34:45.611Z,0.90
2023-01-21T07:35:50.021Z,1.52
2023-01-21T07:36:53.102Z,1.25
2023-01-21T07:37:56.316Z,1.70
2023-01-21T07:38:59.663Z,1.27
2023-01-21T07:40:02.902Z,0.93
2023-01-21T07:41:06.162Z,8.45
2023-01-21T07:42:10.692Z,1.17
2023-01-21T07:43:13.880Z,1.30
2023-01-21T07:44:16.935Z,0.95
2023-01-21T07:45:23.811Z,1.65
2023-01-21T07:46:27.196Z,1.10
2023-01-21T07:47:30.646Z,1.30
2023-01-21T07:48:33.812Z,0.80
2023-01-21T07:49:37.674Z,1.60
2023-01-21T07:50:40.908Z,2.15
2023-01-21T07:51:47.490Z,1.63
2023-01-21T07:52:52.808Z,0.98
2023-01-21T07:53:56.972Z,1.10
2023-01-21T07:55:01.645Z,1.02
2023-01-21T07:56:06.972Z,1.13
2023-01-21T07:57:10.041Z,1.10
2023-01-21T07:58:13.131Z,2.15
2023-01-21T07:59:16.258Z,1.15
2023-01-21T08:00:19.893Z,1.17
2023-01-21T08:01:27.047Z,1.52
2023-01-21T08:02:30.309Z,1.45
2023-01-21T08:03:34.469Z,1.63
2023-01-21T08:04:37.619Z,1.40
2023-01-21T08:05:40.740Z,2.03
2023-01-21T08:06:43.854Z,1.20
2023-01-21T08:07:47.086Z,1.17
2023-01-21T08:08:50.237Z,0.85
2023-01-21T08:09:53.349Z,0.80
2023-01-21T08:10:56.852Z,1.02
2023-01-21T08:11:59.886Z,2.40
2023-01-21T08:13:03.833Z,1.30
2023-01-21T08:14:06.983Z,1.85
2023-01-21T08:15:11.740Z,1.45
2023-01-21T08:16:15.574Z,0.98
2023-01-21T08:17:18.830Z,0.70
2023-01-21T08:18:24.026Z,2.08
2023-01-21T08:19:27.594Z,1.25
2023-01-21T08:20:30.742Z,1.77
2023-01-21T08:21:33.863Z,1.45
2023-01-21T08:22:37.918Z,2.53
2023-01-21T08:23:41.017Z,1.40
2023-01-21T08:24:44.208Z,1.77
2023-01-21T08:25:47.398Z,1.17
2023-01-21T08:26:50.702Z,1.30
2023-01-21T08:27:53.768Z,1.10
2023-01-21T08:28:56.939Z,1.40
2023-01-21T08:30:00.223Z,1.75
2023-01-21T08:31:12.228Z,1.15
2023-01-21T08:32:16.119Z,1.23
2023-01-21T08:33:19.229Z,1.23
2023-01-21T08:34:22.418Z,1.05
2023-01-21T08:35:25.833Z,0.80
2023-01-21T08:36:29.030Z,1.15
2023-01-21T08:37:32.112Z,2.83
2023-01-21T08:38:36.000Z,1.15
2023-01-21T08:39:39.149Z,1.80
2023-01-21T08:40:42.311Z,1.88
2023-01-21T08:41:46.024Z,1.63
2023-01-21T08:42:49.205Z,1.35
2023-01-21T08:43:52.357Z,1.92
2023-01-21T08:44:55.603Z,1.85
2023-01-21T08:46:01.552Z,1.23
2023-01-21T08:47:04.941Z,2.45
2023-01-21T08:48:08.040Z,1.45
2023-01-21T08:49:11.206Z,1.55
2023-01-21T08:50:14.522Z,1.55
2023-01-21T08:51:17.833Z,1.00
2023-01-21T08:52:21.641Z,1.08
2023-01-21T08:53:25.103Z,0.90
2023-01-21T08:54:28.388Z,1.90
2023-01-21T08:55:31.663Z,1.67
2023-01-21T08:56:35.199Z,1.90
2023-01-21T08:57:38.276Z,0.90
2023-01-21T08:58:41.872Z,1.75
2023-01-21T08:59:44.989Z,1.17
2023-01-21T09:00:48.717Z,1.17
2023-01-21T09:01:51.898Z,1.65
2023-01-21T09:02:55.787Z,1.45
2023-01-21T09:04:01.068Z,1.23
2023-01-21T09:05:04.578Z,2.05
2023-01-21T09:06:08.734Z,1.90
2023-01-21T09:07:11.863Z,1.70
2023-01-21T09:08:15.041Z,2.63
2023-01-21T09:09:18.339Z,2.70
2023-01-21T09:10:40.039Z,2.10
2023-01-21T09:11:43.451Z,2.70
2023-01-21T09:12:46.529Z,2.28
2023-01-21T09:13:49.697Z,1.30
2023-01-21T09:14:52.885Z,1.88
2023-01-21T09:15:56.023Z,1.85
2023-01-21T09:16:59.196Z,2.03
2023-01-21T09:18:02.266Z,1.85
2023-01-21T09:19:05.696Z,1.50
2023-01-21T09:20:10.070Z,2.42
2023-01-21T09:21:13.965Z,1.70
2023-01-21T09:22:17.657Z,3.05
2023-01-21T09:23:27.657Z,4.13
2023-01-21T09:24:31.045Z,4.35
2023-01-21T09:25:34.764Z,2.05
2023-01-21T09:26:38.191Z,2.08
2023-01-21T09:27:41.264Z,1.92
2023-01-21T09:28:51.231Z,3.80
2023-01-21T09:29:54.949Z,2.40
2023-01-21T09:31:04.994Z,3.17
2023-01-21T09:32:08.213Z,1.70
2023-01-21T09:33:12.541Z,1.85
2023-01-21T09:34:15.665Z,1.20
2023-01-21T09:35:18.964Z,1.52
2023-01-21T09:36:26.339Z,2.05
2023-01-21T09:37:29.460Z,2.60
2023-01-21T09:38:33.388Z,1.35
2023-01-21T09:39:36.545Z,1.42
2023-01-21T09:40:46.077Z,2.72
2023-01-21T09:41:54.311Z,1.95
2023-01-21T09:43:02.580Z,3.22
2023-01-21T09:44:15.564Z,3.95
2023-01-21T09:45:19.584Z,2.67
2023-01-21T09:46:55.637Z,1.58
2023-01-21T09:48:00.568Z,1.73
2023-01-21T09:49:10.437Z,1.80
2023-01-21T09:50:21.979Z,1.60
2023-01-21T09:51:52.723Z,1.60
2023-01-21T09:53:11.082Z,3.67
2023-01-21T09:54:31.391Z,2.60
2023-01-21T09:55:47.683Z,1.00
2023-01-21T09:57:24.478Z,1.95
2023-01-21T09:58:46.942Z,2.53
2023-01-21T10:00:44.240Z,1.30
2023-01-21T10:01:48.439Z,1.67
2023-01-21T10:03:18.621Z,1.58
2023-01-21T10:04:48.158Z,1.35
2023-01-21T10:06:24.108Z,2.20
2023-01-21T10:07:38.109Z,1.52
2023-01-21T10:09:12.755Z,2.08
2023-01-21T10:10:51.068Z,3.08
2023-01-21T10:12:24.315Z,1.67
2023-01-21T10:13:46.346Z,1.55
2023-01-21T10:15:04.934Z,2.15
2023-01-21T10:16:26.649Z,1.55
2023-01-21T10:17:52.292Z,1.88
2023-01-21T10:18:57.687Z,2.63
2023-01-21T10:20:26.815Z,2.42
2023-01-21T10:21:57.005Z,3.50
2023-01-21T10:23:11.806Z,2.63
2023-01-21T10:24:33.068Z,2.28
2023-01-21T10:25:37.593Z,2.13
2023-01-21T10:26:43.050Z,2.70
2023-01-21T10:27:46.385Z,3.33
2023-01-21T10:28:55.282Z,3.63
2023-01-21T10:30:07.912Z,4.35
2023-01-21T10:31:30.693Z,2.85
2023-01-21T10:32:34.708Z,4.13
2023-01-21T10:33:37.986Z,3.42
2023-01-21T10:34:53.357Z,1.90
2023-01-21T10:36:14.296Z,3.15
2023-01-21T10:38:53.518Z,2.50
2023-01-21T10:40:03.745Z,5.75
2023-01-21T10:41:18.609Z,4.00
2023-01-21T10:42:43.291Z,3.65
2023-01-21T10:44:07.258Z,3.90
2023-01-21T10:45:46.853Z,3.42
2023-01-21T10:47:22.895Z,3.28
2023-01-21T10:48:47.522Z,6.35
2023-01-21T10:50:04.409Z,4.20
2023-01-21T10:51:21.320Z,3.67
2023-01-21T10:52:30.051Z,5.55
2023-01-21T10:53:50.890Z,5.05
2023-01-21T10:55:38.481Z,5.57
2023-01-21T10:57:09.780Z,5.97
2023-01-21T10:58:38.700Z,4.65
2023-01-21T10:59:43.066Z,4.72
2023-01-21T11:00:50.724Z,5.68
2023-01-21T11:02:08.228Z,3.28
2023-01-21T11:03:31.008Z,5.07
2023-01-21T11:04:36.655Z,6.05
2023-01-21T11:05:40.159Z,4.40
2023-01-21T11:06:46.662Z,8.30
2023-01-21T11:07:50.398Z,6.40
2023-01-21T11:09:00.180Z,4.47
2023-01-21T11:10:06.039Z,7.22
2023-01-21T11:11:12.566Z,4.90
2023-01-21T11:12:21.223Z,6.85
2023-01-21T11:13:24.470Z,5.07
2023-01-21T11:14:28.100Z,6.45
2023-01-21T11:15:33.751Z,7.85
2023-01-21T11:16:43.417Z,4.47
2023-01-21T11:17:51.944Z,5.50
2023-01-21T11:18:55.230Z,7.05
2023-01-21T11:20:00.950Z,3.90
2023-01-21T11:21:25.268Z,4.35
2023-01-21T11:22:32.435Z,6.38
2023-01-21T11:23:35.576Z,4.55
2023-01-21T11:24:50.226Z,5.65
2023-01-21T11:26:06.382Z,5.70
2023-01-21T11:27:21.040Z,7.13
2023-01-21T11:28:27.661Z,6.07
2023-01-21T11:29:41.424Z,6.55
2023-01-21T11:30:51.087Z,4.85
2023-01-21T11:32:06.221Z,7.80
2023-01-21T11:33:25.935Z,8.40
2023-01-21T11:34:29.684Z,4.63
2023-01-21T11:35:33.018Z,7.80
2023-01-21T11:36:36.307Z,4.93
2023-01-21T11:37:39.474Z,6.40
2023-01-21T11:38:44.593Z,5.93
2023-01-21T11:40:00.056Z,5.35
2023-01-21T11:41:21.549Z,8.05
2023-01-21T11:42:25.744Z,7.65
2023-01-21T11:43:54.276Z,8.35
2023-01-21T11:45:19.535Z,9.00
2023-01-21T11:46:37.134Z,7.03
2023-01-21T11:47:51.562Z,8.60
2023-01-21T11:49:06.894Z,6.65
2023-01-21T11:50:16.902Z,4.25
2023-01-21T11:51:20.594Z,10.20
2023-01-21T11:52:23.781Z,8.45
2023-01-21T11:53:26.862Z,7.50
2023-01-21T11:54:37.418Z,10.45
2023-01-21T11:55:47.847Z,10.75
2023-01-21T11:56:56.926Z,9.48
2023-01-21T11:58:00.048Z,10.15
2023-01-21T11:59:36.188Z,9.07
2023-01-21T12:00:39.409Z,11.15
2023-01-21T12:01:50.306Z,11.43
2023-01-21T12:02:59.791Z,13.43
2023-01-21T12:04:03.786Z,8.13
2023-01-21T12:05:21.674Z,11.23
2023-01-21T12:06:30.730Z,9.38
2023-01-21T12:07:39.752Z,9.13
2023-01-21T12:08:43.427Z,9.57
2023-01-21T12:10:04.961Z,8.82
2023-01-21T12:11:08.907Z,11.10
2023-01-21T12:12:55.959Z,8.30
2023-01-21T12:14:33.935Z,8.63
2023-01-21T12:16:20.729Z,12.20
2023-01-21T12:17:44.763Z,12.13
2023-01-21T12:19:10.697Z,14.80
2023-01-21T12:20:28.939Z,14.73
2023-01-21T12:21:46.830Z,14.98
2023-01-21T12:22:59.937Z,12.25
2023-01-21T12:24:17.756Z,10.18
2023-01-21T12:25:29.613Z,6.72
2023-01-21T12:27:03.039Z,11.82
2023-01-21T12:28:47.480Z,17.42
2023-01-21T12:30:27.766Z,11.35
2023-01-21T12:31:43.626Z,10.60
2023-01-21T12:33:01.290Z,12.40
2023-01-21T12:34:40.061Z,11.88
2023-01-21T12:35:54.168Z,13.43
2023-01-21T12:37:10.720Z,7.72
2023-01-21T12:38:24.503Z,7.50
2023-01-21T12:39:38.105Z,11.48
2023-01-21T12:41:01.888Z,9.27
2023-01-21T12:42:17.118Z,9.05
2023-01-21T12:43:33.099Z,12.52
2023-01-21T12:44:42.345Z,13.65
2023-01-21T12:46:25.798Z,12.77
2023-01-21T12:47:53.433Z,11.43
2023-01-21T12:49:07.915Z,13.18
2023-01-21T12:50:32.200Z,11.85
2023-01-21T12:51:44.039Z,9.38
2023-01-21T12:53:00.732Z,11.40
2023-01-21T12:54:40.029Z,9.57
2023-01-21T12:56:04.128Z,12.45
2023-01-21T12:57:41.829Z,10.93
2023-01-21T12:59:07.773Z,15.07
2023-01-21T13:00:33.154Z,15.25
2023-01-21T13:01:52.351Z,12.27
2023-01-21T13:03:38.047Z,10.10
2023-01-21T13:05:21.655Z,10.85
2023-01-21T13:06:52.753Z,7.10
2023-01-21T13:08:12.160Z,10.85
2023-01-21T13:09:31.340Z,14.45
2023-01-21T13:10:53.052Z,12.80
2023-01-21T13:12:12.932Z,8.95
2023-01-21T13:13:35.014Z,8.65
2023-01-21T13:14:48.500Z,13.05
2023-01-21T13:15:58.811Z,12.55
2023-01-21T13:17:16.334Z,9.93
2023-01-21T13:18:30.624Z,11.18
2023-01-21T13:19:33.753Z,12.27
2023-01-21T13:20:42.899Z,9.40
2023-01-21T13:22:36.785Z,10.48
2023-01-21T13:24:07.483Z,14.23
2023-01-21T13:25:42.610Z,8.00
2023-01-21T13:27:22.537Z,10.38
2023-01-21T13:28:50.447Z,10.38
2023-01-21T13:30:04.454Z,11.63
2023-01-21T13:31:38.180Z,9.93
2023-01-21T13:33:20.456Z,11.35
2023-01-21T13:34:39.315Z,10.45
2023-01-21T13:36:23.696Z,10.93
2023-01-21T13:37:48.938Z,13.10
2023-01-21T13:39:51.646Z,8.23
2023-01-21T13:41:43.889Z,15.40
2023-01-21T13:43:04.404Z,14.73
2023-01-21T13:44:28.943Z,13.13
2023-01-21T13:46:21.315Z,10.32
2023-01-21T13:47:30.207Z,11.68
2023-01-21T13:48:49.529Z,11.45
2023-01-21T13:50:17.818Z,10.95
2023-01-21T13:51:47.321Z,10.52
2023-01-21T13:53:46.384Z,13.57
2023-01-21T13:55:22.418Z,10.93
2023-01-21T13:56:39.523Z,12.93
2023-01-21T13:58:14.876Z,12.43
2023-01-21T13:59:29.675Z,16.55
2023-01-21T14:00:51.686Z,15.07
2023-01-21T14:02:14.263Z,21.38
2023-01-21T14:03:52.095Z,10.98
2023-01-21T14:05:32.537Z,15.77
2023-01-21T14:07:01.868Z,19.38
2023-01-21T14:08:44.600Z,15.68
2023-01-21T14:09:52.273Z,13.10
2023-01-21T14:11:14.564Z,12.38
2023-01-21T14:12:58.806Z,11.80
2023-01-21T14:14:07.571Z,10.35
2023-01-21T14:15:19.469Z,9.50
2023-01-21T14:16:37.438Z,9.48
2023-01-21T14:18:20.056Z,13.20
2023-01-21T14:19:51.031Z,10.07
2023-01-21T14:21:35.246Z,10.35
2023-01-21T14:22:44.566Z,9.80
2023-01-21T14:24:29.146Z,10.88
2023-01-21T14:26:03.030Z,9.93
2023-01-21T14:27:27.262Z,9.98
2023-01-21T14:28:55.473Z,11.93
2023-01-21T14:30:05.696Z,12.40
2023-01-21T14:31:30.738Z,11.95
2023-01-21T14:32:45.366Z,10.98
2023-01-21T14:34:20.125Z,11.55
2023-01-21T14:35:41.866Z,12.55
2023-01-21T14:36:47.878Z,11.98
2023-01-21T14:38:40.187Z,11.55
2023-01-21T14:39:53.291Z,12.52
2023-01-21T14:41:12.010Z,12.38
2023-01-21T14:42:18.571Z,10.52
2023-01-21T14:43:30.570Z,13.38
2023-01-21T14:44:50.422Z,12.98
2023-01-21T14:45:57.212Z,11.63
2023-01-21T14:47:29.603Z,11.07
2023-01-21T14:48:42.234Z,11.65
2023-01-21T14:49:52.586Z,11.80
2023-01-21T14:51:13.011Z,12.98
2023-01-21T14:52:29.002Z,11.98
2023-01-21T14:53:42.487Z,15.65
2023-01-21T14:54:46.916Z,10.43
2023-01-21T14:56:35.081Z,12.23
2023-01-21T14:57:41.403Z,12.63
2023-01-21T14:58:51.905Z,15.73
2023-01-21T15:00:24.250Z,9.70
2023-01-21T15:01:42.944Z,17.27
2023-01-21T15:02:53.521Z,9.93
2023-01-21T15:03:58.504Z,10.73
2023-01-21T15:05:10.773Z,11.20
2023-01-21T15:06:22.618Z,14.30
2023-01-21T15:07:39.165Z,14.48
2023-01-21T15:08:45.837Z,15.82
2023-01-21T15:09:58.785Z,15.48
2023-01-21T15:11:08.686Z,10.98
2023-01-21T15:12:21.220Z,10.82
2023-01-21T15:13:38.646Z,13.23
2023-01-21T15:14:42.812Z,13.60
2023-01-21T15:16:32.259Z,11.40
2023-01-21T15:17:54.333Z,13.23
2023-01-21T15:19:29.495Z,13.38
2023-01-21T15:20:42.885Z,16.15
2023-01-21T15:22:00.499Z,11.20
2023-01-21T15:23:29.544Z,12.50
2023-01-21T15:24:40.701Z,12.48
2023-01-21T15:26:08.402Z,12.10
2023-01-21T15:27:19.838Z,19.83
2023-01-21T15:28:46.202Z,15.00
2023-01-21T15:29:55.325Z,14.75
2023-01-21T15:31:03.285Z,15.13
2023-01-21T15:32:27.853Z,18.88
2023-01-21T15:33:35.892Z,17.25
2023-01-21T15:34:39.537Z,13.20
2023-01-21T15:35:44.387Z,16.02
2023-01-21T15:36:53.355Z,17.90
2023-01-21T15:38:13.762Z,15.80
2023-01-21T15:39:23.511Z,13.50